Terminal Aerodrome Forecast
Issued by NWS

Home | Current Version | Previous Version | Text Only | Print | Product List | Glossary On
Versions: 1 2 3 4 5 6 7 8 9 10 11 12 13 14 15 16
000
FTPQ31 PGUM 200534
TAFKWA
TAF
PKWA 200534Z 2006/2106 09013KT P6SM VCSH SCT018 SCT035 BKN110
      TEMPO 2011/2015 4SM SHRA SCT012 OVC025=

USA.gov is the U.S. government's official web portal to all federal, state and local government web resources and services.